Pagina principale
METAR-TAF:

METAR-TAF

Aeroporti :

Aeroporto di Karlsruhe-Baden-Baden

Baden-Baden, Germania

latitudine: 48-46-43N, longitudine: 008-04-47E, altezza: 124 m

Osservazione

Il bollettino è stato emesso 39 minuti fa, alle 05:50 UTC
Vento 12 kt da sud/sud-ovest
Temperature 4°C
Umidità 87%
Pressione 1006 hPa
Visibilità 10 km o più
Poco nuvoloso ad un'altezza di 1000 ft
Cielo coperto ad un'altezza di 1700 ft
pioggia debole

METAR: EDSB 180550Z 20012KT 9999 -RA FEW010 OVC017 04/02 Q1006

Ora: 07:29 (06:29 UTC)

Previsione

Il bollettino è stato emesso 1 ora e 29 minuti fa, alle 05:00 UTC
Previsione valida dal 18 alle 06 UTC al 19 alle 06 UTC
Vento 8 kt da sud/sud-ovest
Visibilità 10 km o più
Nuvoloso ad un'altezza di 2000 ft
Probabilità 30% :
Temporaneamente
dal 18 alle 08 UTC al 18 alle 18 UTC
pioggia

TAF: EDSB 180500Z 1806/1906 21008KT 9999 BKN020 PROB30 TEMPO 1808/1818 RA

Osservazioni e previsioni meteorologiche di più di 4000 aeroporti (messaggi METAR e TAF).

Le stazioni disponibili sono rappresentate dai dischi gialli e rossi sulla carta.

Puntare il mouse per vedere il nome della stazione.

Clicca sopra per visualizzare le osservazioni e previsioni meteorologiche.

Per cambiare la mappa : fare clic sui pulsanti verdi con una croce nera per ingrandire, il pulsante verde con un trattino per diminuire, o sulla freccia verde per le mappe adiacenti.


METAR-TAF: